createdAt,value
2018-04-22T00:01:58.117Z,65.70
2018-04-22T00:04:25.615Z,65.80
2018-04-22T00:06:53.111Z,65.10
2018-04-22T00:09:20.674Z,65.80
2018-04-22T00:11:48.264Z,66.20
2018-04-22T00:14:15.746Z,66.30
2018-04-22T00:16:43.305Z,67.80
2018-04-22T00:19:11.101Z,66.80
2018-04-22T00:21:38.637Z,66.10
2018-04-22T00:24:06.175Z,66.40
2018-04-22T00:26:34.430Z,66.20
2018-04-22T00:29:02.153Z,66.10
2018-04-22T00:31:29.700Z,66.70
2018-04-22T00:33:59.889Z,67.10
2018-04-22T00:36:27.376Z,67.00
2018-04-22T00:38:54.894Z,66.60
2018-04-22T00:41:23.034Z,67.10
2018-04-22T00:43:50.620Z,67.40
2018-04-22T00:46:18.091Z,67.70
2018-04-22T00:48:45.603Z,66.60
2018-04-22T00:51:13.110Z,67.20
2018-04-22T00:53:52.595Z,68.30
2018-04-22T00:56:20.854Z,68.60
2018-04-22T00:58:48.527Z,68.40
2018-04-22T01:01:16.024Z,68.00
2018-04-22T01:03:44.272Z,69.30
2018-04-22T01:06:11.780Z,69.30
2018-04-22T01:08:40.040Z,68.50
2018-04-22T01:11:07.575Z,68.30
2018-04-22T01:13:35.103Z,69.00
2018-04-22T01:16:03.409Z,68.50
2018-04-22T01:18:31.641Z,68.80
2018-04-22T01:20:59.132Z,68.80
2018-04-22T01:23:27.372Z,69.10
2018-04-22T01:26:00.997Z,70.00
2018-04-22T01:28:28.490Z,69.00
2018-04-22T01:30:55.964Z,69.30
2018-04-22T01:33:23.503Z,68.20
2018-04-22T01:35:50.983Z,68.90
2018-04-22T01:38:18.655Z,68.60
2018-04-22T01:40:46.159Z,68.20
2018-04-22T01:43:13.648Z,67.90
2018-04-22T01:45:41.935Z,69.00
2018-04-22T01:48:10.204Z,69.50
2018-04-22T01:50:37.699Z,69.30
2018-04-22T01:53:09.584Z,69.70
2018-04-22T01:55:37.820Z,69.80
2018-04-22T01:58:05.303Z,69.80
2018-04-22T02:00:32.817Z,70.20
2018-04-22T02:03:00.352Z,68.20
2018-04-22T02:05:39.379Z,69.00
2018-04-22T02:08:06.856Z,68.60
2018-04-22T02:10:34.355Z,69.40
2018-04-22T02:13:02.767Z,69.70
2018-04-22T02:15:30.304Z,69.10
2018-04-22T02:17:58.540Z,70.20
2018-04-22T02:20:26.052Z,70.00
2018-04-22T02:22:54.424Z,69.90
2018-04-22T02:25:23.932Z,70.50
2018-04-22T02:27:51.426Z,71.80
2018-04-22T02:30:18.910Z,71.60
2018-04-22T02:32:47.150Z,70.50
2018-04-22T02:35:14.685Z,70.50
2018-04-22T02:37:42.167Z,70.30
2018-04-22T02:40:11.345Z,71.20
2018-04-22T02:42:38.861Z,71.20
2018-04-22T02:45:06.733Z,71.00
2018-04-22T02:47:34.255Z,70.90
2018-04-22T02:50:02.577Z,69.90
2018-04-22T02:52:32.047Z,69.70
2018-04-22T02:54:59.563Z,70.00
2018-04-22T02:57:27.424Z,70.20
2018-04-22T02:59:54.930Z,70.40
2018-04-22T03:02:22.433Z,69.90
2018-04-22T03:04:56.835Z,70.00
2018-04-22T03:07:26.086Z,70.90
2018-04-22T03:09:53.564Z,71.10
2018-04-22T03:12:22.177Z,71.70
2018-04-22T03:14:49.662Z,71.60
2018-04-22T03:17:17.169Z,72.30
2018-04-22T03:19:44.651Z,71.20
2018-04-22T03:22:12.183Z,72.00
2018-04-22T03:24:42.122Z,72.00
2018-04-22T03:27:09.625Z,71.10
2018-04-22T03:29:41.366Z,70.30
2018-04-22T03:32:08.896Z,71.70
2018-04-22T03:34:36.404Z,72.00
2018-04-22T03:37:03.911Z,72.30
2018-04-22T03:39:35.198Z,70.60
2018-04-22T03:42:10.952Z,71.10
2018-04-22T03:44:38.573Z,71.20
2018-04-22T03:47:07.036Z,71.00
2018-04-22T03:49:35.793Z,70.40
2018-04-22T03:52:06.158Z,71.00
2018-04-22T03:54:37.691Z,70.50
2018-04-22T03:57:05.227Z,70.40
2018-04-22T03:59:35.522Z,70.40
2018-04-22T04:02:06.696Z,70.10
2018-04-22T04:04:37.365Z,70.90
2018-04-22T04:07:06.837Z,71.30
2018-04-22T04:09:36.136Z,72.20
2018-04-22T04:12:05.140Z,72.00
2018-04-22T04:14:34.448Z,70.40
2018-04-22T04:17:09.535Z,70.30
2018-04-22T04:19:49.791Z,70.50
2018-04-22T04:22:37.600Z,71.00
2018-04-22T04:28:22.054Z,71.70
2018-04-22T04:30:49.640Z,71.80
2018-04-22T04:33:18.726Z,72.10
2018-04-22T04:35:47.883Z,73.30
2018-04-22T04:38:15.395Z,73.10
2018-04-22T04:40:43.019Z,73.10
2018-04-22T04:43:12.703Z,71.70
2018-04-22T04:45:45.402Z,71.40
2018-04-22T04:51:11.740Z,73.00
2018-04-22T04:53:49.155Z,72.90
2018-04-22T04:56:19.370Z,73.90
2018-04-22T04:58:49.299Z,73.80
2018-04-22T05:01:19.079Z,72.80
2018-04-22T05:03:50.380Z,72.70
2018-04-22T05:06:18.796Z,71.80
2018-04-22T05:08:49.500Z,71.70
2018-04-22T05:11:18.151Z,71.70
2018-04-22T05:13:48.448Z,72.60
2018-04-22T05:16:19.936Z,73.30
2018-04-22T05:18:49.244Z,73.30
2018-04-22T05:21:18.985Z,73.00
2018-04-22T05:23:49.550Z,73.30
2018-04-22T05:26:17.032Z,73.20
2018-04-22T05:31:49.318Z,74.00
2018-04-22T05:34:16.779Z,74.00
2018-04-22T05:36:44.308Z,73.80
2018-04-22T05:39:11.914Z,74.20
2018-04-22T05:41:44.669Z,73.70
2018-04-22T05:44:12.464Z,73.70
2018-04-22T05:46:46.343Z,72.80
2018-04-22T05:49:13.927Z,72.20
2018-04-22T05:51:41.683Z,72.80
2018-04-22T05:54:10.435Z,72.60
2018-04-22T05:56:40.549Z,71.50
2018-04-22T05:59:18.870Z,71.50
2018-04-22T06:01:46.387Z,70.70
2018-04-22T06:04:25.970Z,71.00
2018-04-22T06:07:05.031Z,70.70
2018-04-22T06:09:32.600Z,70.00
2018-04-22T06:12:18.249Z,69.00
2018-04-22T06:14:49.561Z,68.50
2018-04-22T06:18:02.412Z,68.60
2018-04-22T06:20:30.770Z,69.00
2018-04-22T06:23:06.017Z,69.10
2018-04-22T06:31:20.475Z,67.50
2018-04-22T06:33:51.277Z,67.40
2018-04-22T06:36:27.124Z,66.80
2018-04-22T06:38:54.994Z,66.60
2018-04-22T06:41:22.730Z,65.20
2018-04-22T06:58:52.955Z,63.10
2018-04-22T07:01:20.508Z,62.80
2018-04-22T07:09:51.366Z,61.90
2018-04-22T07:12:20.780Z,62.00
2018-04-22T07:18:22.149Z,61.20
2018-04-22T07:20:49.765Z,60.80
2018-04-22T07:23:21.415Z,59.20
2018-04-22T07:34:50.602Z,55.80
2018-04-22T07:40:21.510Z,56.10
2018-04-22T07:42:49.959Z,55.50
2018-04-22T07:45:19.548Z,55.50
2018-04-22T07:47:50.772Z,54.00
2018-04-22T07:50:25.267Z,54.30
2018-04-22T07:52:52.868Z,54.30
2018-04-22T07:55:20.564Z,54.10
2018-04-22T08:02:50.812Z,54.90
2018-04-22T08:05:20.683Z,52.90
2018-04-22T08:07:50.051Z,53.20
2018-04-22T08:10:18.775Z,53.20
2018-04-22T08:12:52.018Z,52.00
2018-04-22T08:15:22.824Z,51.80
2018-04-22T08:17:51.577Z,51.70
2018-04-22T08:20:20.452Z,51.40
2018-04-22T08:22:52.108Z,51.70
2018-04-22T08:25:20.647Z,50.60
2018-04-22T08:27:54.159Z,50.50
2018-04-22T08:30:35.733Z,50.30
2018-04-22T08:33:19.210Z,50.20
2018-04-22T08:35:50.426Z,50.20
2018-04-22T08:41:10.078Z,51.10
2018-04-22T08:43:53.362Z,49.30
2018-04-22T08:46:31.354Z,49.10
2018-04-22T08:49:00.043Z,49.80
2018-04-22T08:51:27.619Z,49.40
2018-04-22T08:53:57.265Z,49.30
2018-04-22T08:59:24.357Z,48.30
2018-04-22T09:04:50.421Z,48.00
2018-04-22T09:07:23.558Z,47.80
2018-04-22T09:09:51.886Z,48.00
2018-04-22T09:12:19.634Z,47.00
2018-04-22T09:14:53.968Z,46.30
2018-04-22T09:24:53.658Z,45.30
2018-04-22T09:27:22.512Z,45.20
2018-04-22T09:29:50.063Z,45.20
2018-04-22T09:32:22.077Z,45.60
2018-04-22T09:34:53.720Z,46.10
2018-04-22T09:37:21.270Z,48.50
2018-04-22T09:39:51.606Z,50.10
2018-04-22T09:42:19.924Z,49.80
2018-04-22T09:44:50.536Z,49.00
2018-04-22T09:50:21.974Z,46.90
2018-04-22T09:52:49.547Z,46.60
2018-04-22T09:55:20.786Z,45.60
2018-04-22T09:57:49.768Z,45.70
2018-04-22T10:28:22.578Z,38.70
2018-04-22T10:30:50.130Z,38.60
2018-04-22T10:33:17.682Z,38.50
2018-04-22T10:38:49.284Z,37.70
2018-04-22T10:41:20.676Z,37.70
2018-04-22T10:43:49.302Z,37.60
2018-04-22T10:46:20.532Z,37.60
2018-04-22T10:48:51.211Z,37.50
2018-04-22T10:51:19.940Z,34.80
2018-04-22T10:53:50.290Z,34.20
2018-04-22T10:56:23.762Z,34.00
2018-04-22T10:58:52.268Z,33.50
2018-04-22T11:01:19.821Z,33.10
2018-04-22T11:03:50.359Z,32.90
2018-04-22T11:06:21.125Z,33.10
2018-04-22T11:08:49.748Z,33.30
2018-04-22T11:11:21.334Z,32.60
2018-04-22T11:13:49.702Z,31.40
2018-04-22T11:16:22.570Z,31.40
2018-04-22T11:18:50.122Z,31.70
2018-04-22T11:21:17.939Z,33.20
2018-04-22T11:23:51.680Z,32.80
2018-04-22T11:26:19.953Z,34.30
2018-04-22T11:28:49.819Z,33.50
2018-04-22T11:31:20.486Z,33.40
2018-04-22T11:33:51.115Z,33.30
2018-04-22T11:36:19.802Z,34.00
2018-04-22T11:38:50.691Z,34.50
2018-04-22T11:41:19.830Z,34.70
2018-04-22T11:43:48.256Z,33.20
2018-04-22T12:11:51.764Z,31.60
2018-04-22T12:14:43.435Z,31.50
2018-04-22T12:17:20.898Z,32.50
2018-04-22T12:19:50.623Z,31.00
2018-04-22T12:22:19.786Z,32.00
2018-04-22T12:24:48.083Z,32.00
2018-04-22T12:27:15.696Z,31.90
2018-04-22T12:29:43.328Z,31.70
2018-04-22T12:32:11.289Z,31.30
2018-04-22T12:34:52.837Z,32.10
2018-04-22T12:37:20.511Z,32.00
2018-04-22T12:42:50.909Z,32.40
2018-04-22T12:45:20.326Z,31.90
2018-04-22T12:47:49.610Z,32.10
2018-04-22T12:50:21.294Z,31.90
2018-04-22T12:52:51.042Z,31.90
2018-04-22T12:55:19.560Z,32.40
2018-04-22T12:57:50.470Z,32.50
2018-04-22T13:00:19.823Z,30.90
2018-04-22T13:02:47.618Z,29.30
2018-04-22T13:11:44.590Z,25.40
2018-04-22T13:14:12.117Z,27.20
2018-04-22T13:16:39.566Z,28.30
2018-04-22T13:24:50.550Z,29.80
2018-04-22T13:27:21.197Z,30.20
2018-04-22T13:29:48.692Z,28.50
2018-04-22T13:32:19.602Z,28.50
2018-04-22T13:34:51.340Z,27.60
2018-04-22T13:37:30.904Z,27.90
2018-04-22T14:28:19.703Z,27.80
2018-04-22T14:30:48.969Z,29.10
2018-04-22T14:33:19.739Z,29.00
2018-04-22T14:35:49.572Z,28.90
2018-04-22T14:38:19.317Z,29.20
2018-04-22T14:40:48.710Z,29.00
2018-04-22T14:43:18.979Z,28.30
2018-04-22T14:48:48.288Z,27.30
2018-04-22T14:51:19.118Z,27.80
2018-04-22T14:53:49.998Z,28.90
2018-04-22T14:56:21.095Z,29.10
2018-04-22T14:58:49.712Z,29.10
2018-04-22T15:01:19.235Z,29.90
2018-04-22T15:03:47.176Z,29.70
2018-04-22T15:06:18.442Z,30.80
2018-04-22T15:11:51.917Z,32.00
2018-04-22T15:14:20.125Z,32.20
2018-04-22T15:19:49.941Z,33.00
2018-04-22T15:22:19.464Z,32.60
2018-04-22T15:24:50.370Z,32.90
2018-04-22T15:27:20.423Z,33.40
2018-04-22T15:29:50.419Z,33.50
2018-04-22T15:32:20.976Z,33.40
2018-04-22T15:34:49.682Z,33.70
2018-04-22T15:37:19.274Z,34.00
2018-04-22T15:39:49.833Z,34.10
2018-04-22T15:42:17.655Z,34.50
2018-04-22T15:44:48.493Z,35.10
2018-04-22T15:50:19.743Z,31.80
2018-04-22T15:52:51.330Z,31.70
2018-04-22T15:55:19.919Z,32.20
2018-04-22T15:57:50.875Z,32.00
2018-04-22T16:00:19.287Z,31.60
2018-04-22T16:02:50.472Z,31.60
2018-04-22T16:05:19.790Z,32.20
2018-04-22T16:10:51.275Z,33.10
2018-04-22T16:13:20.331Z,33.10
2018-04-22T16:15:50.377Z,32.30
2018-04-22T16:18:19.880Z,32.40
2018-04-22T16:20:51.140Z,33.40
2018-04-22T16:23:20.014Z,33.70
2018-04-22T16:25:49.706Z,34.40
2018-04-22T16:28:20.930Z,34.00
2018-04-22T16:30:49.615Z,34.30
2018-04-22T16:33:21.010Z,34.20
2018-04-22T16:38:50.689Z,34.10
2018-04-22T16:41:20.627Z,34.10
2018-04-22T16:48:41.986Z,35.50
2018-04-22T16:51:28.055Z,35.40
2018-04-22T16:54:18.334Z,35.70
2018-04-22T16:56:50.559Z,35.70
2018-04-22T16:59:20.767Z,35.60
2018-04-22T17:04:50.884Z,36.80
2018-04-22T17:07:20.320Z,36.90
2018-04-22T17:12:52.183Z,38.30
2018-04-22T17:15:20.881Z,38.80
2018-04-22T17:17:52.044Z,38.10
2018-04-22T17:20:20.456Z,38.40
2018-04-22T17:28:52.006Z,38.10
2018-04-22T17:31:20.226Z,38.10
2018-04-22T17:33:51.295Z,38.40
2018-04-22T17:36:21.531Z,38.40
2018-04-22T17:38:53.147Z,38.40
2018-04-22T17:41:20.661Z,38.50
2018-04-22T17:52:20.381Z,39.40
2018-04-22T17:54:49.655Z,39.50
2018-04-22T17:57:37.862Z,40.40
2018-04-22T18:02:50.779Z,39.30
2018-04-22T18:08:35.736Z,39.60
2018-04-22T18:14:05.960Z,39.30
2018-04-22T18:19:31.952Z,39.40
2018-04-22T18:25:02.662Z,40.10
2018-04-22T18:27:49.698Z,40.20
2018-04-22T18:30:20.708Z,39.90
2018-04-22T18:32:51.534Z,40.20
2018-04-22T18:35:20.006Z,40.30
2018-04-22T18:37:51.600Z,41.30
2018-04-22T18:43:19.533Z,42.00
2018-04-22T18:48:50.071Z,42.10
2018-04-22T18:51:21.042Z,42.10
2018-04-22T18:53:50.317Z,41.40
2018-04-22T18:56:19.861Z,41.20
2018-04-22T18:58:51.382Z,41.10
2018-04-22T19:01:20.542Z,40.90
2018-04-22T19:03:51.082Z,42.30
2018-04-22T19:06:19.765Z,41.40
2018-04-22T19:08:50.001Z,43.60
2018-04-22T19:11:20.876Z,43.60
2018-04-22T19:13:49.662Z,43.10
2018-04-22T19:16:20.834Z,43.10
2018-04-22T19:18:50.733Z,41.90
2018-04-22T19:21:20.959Z,42.00
2018-04-22T19:26:52.424Z,43.30
2018-04-22T19:29:20.032Z,43.60
2018-04-22T19:34:50.750Z,44.60
2018-04-22T19:37:32.893Z,44.40
2018-04-22T19:43:19.607Z,45.90
2018-04-22T19:45:50.589Z,45.90
2018-04-22T20:06:27.018Z,47.20
2018-04-22T20:08:54.742Z,46.50
2018-04-22T20:38:32.389Z,45.70
2018-04-22T20:41:19.796Z,48.40
2018-04-22T20:43:48.122Z,49.60
2018-04-22T20:49:17.970Z,49.50
2018-04-22T20:51:45.534Z,49.40
2018-04-22T20:54:22.700Z,50.30
2018-04-22T21:02:40.181Z,50.40
2018-04-22T21:05:08.092Z,48.70
2018-04-22T21:10:19.792Z,50.70
2018-04-22T21:12:47.723Z,50.70
2018-04-22T21:15:22.056Z,51.30
2018-04-22T21:17:54.251Z,51.30
2018-04-22T21:20:21.758Z,50.20
2018-04-22T21:22:49.400Z,51.10
2018-04-22T21:25:16.903Z,51.60
2018-04-22T21:30:39.204Z,51.80
2018-04-22T21:33:31.260Z,51.70
2018-04-22T21:35:58.881Z,51.90
2018-04-22T21:38:26.431Z,52.30
2018-04-22T21:40:57.900Z,52.90
2018-04-22T21:43:25.423Z,52.80
2018-04-22T21:45:52.959Z,52.50
2018-04-22T21:48:20.554Z,53.60
2018-04-22T21:50:48.136Z,53.80
2018-04-22T21:53:29.661Z,53.50
2018-04-22T21:56:10.976Z,54.00
2018-04-22T21:58:38.844Z,54.30
2018-04-22T22:03:55.091Z,54.20
2018-04-22T22:06:23.375Z,53.90
2018-04-22T22:08:51.652Z,52.40
2018-04-22T22:11:19.242Z,52.30
2018-04-22T22:13:47.527Z,50.10
2018-04-22T22:19:05.102Z,50.60
2018-04-22T22:21:33.476Z,50.60
2018-04-22T22:24:01.032Z,50.00
2018-04-22T22:26:28.572Z,50.20
2018-04-22T22:31:50.049Z,49.20
2018-04-22T22:34:17.597Z,48.50
2018-04-22T22:36:45.110Z,48.50
2018-04-22T22:39:13.051Z,47.80
2018-04-22T22:41:40.578Z,48.10
2018-04-22T22:44:08.950Z,47.40
2018-04-22T22:46:36.538Z,47.40
2018-04-22T22:49:04.101Z,47.40
2018-04-22T22:51:32.476Z,47.40
2018-04-22T22:54:00.915Z,47.30
2018-04-22T22:56:28.433Z,48.90
2018-04-22T22:58:55.926Z,49.60
2018-04-22T23:01:24.736Z,51.70
2018-04-22T23:03:59.571Z,52.90
2018-04-22T23:06:27.867Z,53.40
2018-04-22T23:08:58.375Z,53.40
2018-04-22T23:11:25.957Z,53.40
2018-04-22T23:14:00.419Z,54.00
2018-04-22T23:16:28.743Z,54.60
2018-04-22T23:19:01.130Z,54.60
2018-04-22T23:21:30.305Z,55.00
2018-04-22T23:23:57.872Z,54.20
2018-04-22T23:26:25.502Z,54.30
2018-04-22T23:28:53.045Z,52.70
2018-04-22T23:31:39.686Z,53.70
2018-04-22T23:34:08.236Z,53.50
2018-04-22T23:36:35.743Z,53.20
2018-04-22T23:39:03.260Z,52.90
2018-04-22T23:41:35.827Z,54.70
2018-04-22T23:44:03.458Z,54.70
2018-04-22T23:46:31.088Z,55.00
2018-04-22T23:49:00.644Z,55.60
2018-04-22T23:51:29.071Z,56.20
2018-04-22T23:53:56.703Z,56.10
2018-04-22T23:56:37.474Z,56.80
2018-04-22T23:59:04.994Z,57.20
